Overview Statistics Trail Chart Weather Telemetry Raw packets
 

This is the latest recevied weather packets stored in our database for station/object N9BLE. If no packets are shown the sender has not sent any weather packets the latest 10 day(s).

<< 93 94 95 96 97 98 99 >>
Time Temp. Humidity Pressure Rain* Wind** Luminosity Snow
1777342698 15.56° C 99% 1006.7 hPa 0 mm - 0 W/m² -
1777342394 15.56° C 99% 1006.5 hPa 0 mm - 0 W/m² -
1777342092 15.56° C 99% 1006.5 hPa 0 mm - 0 W/m² -
1777341787 15.56° C 99% 1006.5 hPa 0 mm - 0 W/m² -
1777339900 16.11° C 98% 1005.2 hPa 0 mm - 0 W/m² -
1777339598 16.11° C 98% 1005.2 hPa 0 mm - 0 W/m² -
1777339294 16.11° C 98% 1005.4 hPa 0 mm - 0 W/m² -
1777313934 13.89° C 98% 1003.3 hPa 0 mm - 163 W/m² -
1777313631 13.89° C 98% 1003.3 hPa 0 mm - 163 W/m² -
1777313329 13.89° C 98% 1002.8 hPa 0 mm - 161 W/m² -
1777313025 13.33° C 98% 1003.1 hPa 0 mm - 154 W/m² -
1777312721 13.33° C 98% 1003.4 hPa 0 mm - 123 W/m² -
1777312418 13.33° C 98% 1002.8 hPa 0 mm - 115 W/m² -
1777312115 12.78° C 98% 1007.2 hPa 4.83 mm - 38 W/m² -
1777311813 12.78° C 98% 1007.2 hPa 4.83 mm - 38 W/m² -
1777311510 12.78° C 98% 1008.4 hPa 6.1 mm - 39 W/m² -
1777311207 13.33° C 97% 1011.3 hPa 6.1 mm - 27 W/m² -
1777310905 12.78° C 97% 1013.3 hPa 7.87 mm - 29 W/m² -
1777310602 12.78° C 97% 1013.4 hPa 8.89 mm - 25 W/m² -
1777310300 12.78° C 97% 1013.5 hPa 11.94 mm - 22 W/m² -
1777309996 12.78° C 97% 1013.4 hPa 12.7 mm - 17 W/m² -
1777309694 12.78° C 96% 1013.3 hPa 10.67 mm - 17 W/m² -
1777309391 12.78° C 96% 1013 hPa 10.16 mm - 13 W/m² -
1777309092 12.78° C 96% 1013 hPa 10.16 mm - 14 W/m² -
1777308787 13.33° C 95% 1012.9 hPa 7.87 mm - 14 W/m² -

* Rain latest hour (hover to see other rain measurements)
** Current wind speed in m/s (hover to see current wind gust speed)